Time;durP1;ratioP1;P1;durP2;ratioP2;P2;SDS_P1;SDS_P2;PMS_P1;PMS_P2;Temp;Humidity;BMP_temperature;BMP_pressure;BME280_temperature;BME280_humidity;BME280_pressure;Samples;Min_cycle;Max_cycle;Signal;HPM_P1;HPM_P2
2022/02/22 00:00:32;;;;;;;6.55;4.07;;;;;;;;;;4979748;28;20156;-79
2022/02/22 00:02:57;;;;;;;8.55;4.05;;;;;;;;;;4962973;28;20034;-79
2022/02/22 00:05:23;;;;;;;7.03;4.15;;;;;;;;;;4959766;28;20038;-80
2022/02/22 00:07:48;;;;;;;7.35;4.40;;;;;;;;;;4979184;28;20034;-79
2022/02/22 00:10:15;;;;;;;9.20;4.60;;;;;;;;;;4995189;28;20104;-79
2022/02/22 00:12:42;;;;;;;7.05;3.97;;;;;;;;;;4979289;28;20053;-79
2022/02/22 00:15:08;;;;;;;6.90;3.58;;;;;;;;;;4962634;28;20044;-80
2022/02/22 00:17:33;;;;;;;6.88;3.85;;;;;;;;;;4979197;28;20044;-80
2022/02/22 00:20:03;;;;;;;6.80;3.38;;;;;;;;;;4978805;28;20121;-79
2022/02/22 00:22:28;;;;;;;7.55;3.45;;;;;;;;;;4979354;28;20493;-79
2022/02/22 00:24:54;;;;;;;7.43;3.45;;;;;;;;;;4995137;28;20041;-79
2022/02/22 00:27:19;;;;;;;8.20;3.33;;;;;;;;;;4994988;28;20042;-79
2022/02/22 00:29:45;;;;;;;6.72;3.42;;;;;;;;;;4990271;28;20223;-79
2022/02/22 00:32:10;;;;;;;7.95;4.30;;;;;;;;;;4959239;28;20064;-79
2022/02/22 00:34:35;;;;;;;5.75;3.08;;;;;;;;;;4943500;28;20034;-80
2022/02/22 00:37:01;;;;;;;8.75;3.70;;;;;;;;;;4975593;28;20042;-79
2022/02/22 00:39:27;;;;;;;7.03;3.47;;;;;;;;;;4964997;28;20093;-80
2022/02/22 00:41:52;;;;;;;6.25;2.75;;;;;;;;;;4991104;28;20108;-79
2022/02/22 00:44:17;;;;;;;6.05;3.67;;;;;;;;;;4975224;28;20496;-79
2022/02/22 00:46:43;;;;;;;7.68;3.83;;;;;;;;;;4978257;28;20488;-79
2022/02/22 00:49:09;;;;;;;6.75;3.03;;;;;;;;;;4978183;28;20026;-79
2022/02/22 00:51:35;;;;;;;6.85;2.83;;;;;;;;;;4978623;28;20038;-79
2022/02/22 00:54:01;;;;;;;7.30;3.33;;;;;;;;;;4994677;28;20100;-80
2022/02/22 00:56:26;;;;;;;7.13;3.20;;;;;;;;;;4978209;28;20042;-79
2022/02/22 00:58:52;;;;;;;7.65;3.22;;;;;;;;;;4986352;28;20420;-79
2022/02/22 01:01:17;;;;;;;6.97;3.55;;;;;;;;;;4959588;28;20500;-80
2022/02/22 01:03:43;;;;;;;7.43;3.13;;;;;;;;;;4958802;28;20044;-79
2022/02/22 01:06:09;;;;;;;6.10;2.97;;;;;;;;;;4982599;28;20034;-80
2022/02/22 01:08:34;;;;;;;6.63;2.60;;;;;;;;;;4978220;28;20109;-79
2022/02/22 01:11:00;;;;;;;6.07;2.33;;;;;;;;;;4977913;28;20503;-79
2022/02/22 01:13:25;;;;;;;5.07;2.60;;;;;;;;;;4978297;28;20042;-79
2022/02/22 01:15:51;;;;;;;6.32;3.20;;;;;;;;;;4977937;28;20049;-79
2022/02/22 01:18:16;;;;;;;5.75;2.85;;;;;;;;;;4993775;28;20568;-80
2022/02/22 01:20:42;;;;;;;7.22;3.05;;;;;;;;;;4994388;28;20042;-79
2022/02/22 01:23:07;;;;;;;7.25;3.35;;;;;;;;;;4977413;28;20112;-80
2022/02/22 01:25:33;;;;;;;6.13;2.70;;;;;;;;;;4974416;28;20042;-79
2022/02/22 01:27:58;;;;;;;5.70;2.72;;;;;;;;;;4976550;28;20456;-79
2022/02/22 01:30:24;;;;;;;5.43;2.15;;;;;;;;;;4992752;28;20050;-80
2022/02/22 01:32:49;;;;;;;5.45;2.35;;;;;;;;;;4978311;28;20084;-80
2022/02/22 01:35:15;;;;;;;6.53;2.28;;;;;;;;;;4978739;28;20038;-79
2022/02/22 01:37:40;;;;;;;6.80;2.20;;;;;;;;;;4978552;28;20061;-80
2022/02/22 01:40:06;;;;;;;6.68;2.97;;;;;;;;;;4978377;28;20046;-79
2022/02/22 01:42:32;;;;;;;7.00;2.53;;;;;;;;;;4978800;28;20477;-79
2022/02/22 01:44:57;;;;;;;4.90;2.15;;;;;;;;;;4978743;28;20042;-80
2022/02/22 01:47:23;;;;;;;5.32;2.42;;;;;;;;;;4978094;28;20045;-80
2022/02/22 01:49:48;;;;;;;7.30;2.25;;;;;;;;;;4978209;28;20412;-79
2022/02/22 01:52:14;;;;;;;6.45;2.72;;;;;;;;;;4978141;28;20038;-79
2022/02/22 01:54:39;;;;;;;4.72;2.33;;;;;;;;;;4978272;28;20394;-80
2022/02/22 01:57:05;;;;;;;7.75;2.03;;;;;;;;;;4962302;28;20081;-80
2022/02/22 01:59:30;;;;;;;6.35;2.42;;;;;;;;;;4990911;28;20412;-80
2022/02/22 02:01:56;;;;;;;5.07;2.20;;;;;;;;;;4981437;28;20038;-79
2022/02/22 02:04:21;;;;;;;4.43;2.33;;;;;;;;;;4997490;28;20080;-79
2022/02/22 02:06:47;;;;;;;5.60;2.22;;;;;;;;;;4980470;28;20045;-80
2022/02/22 02:09:13;;;;;;;7.25;2.95;;;;;;;;;;4997558;28;20034;-79
2022/02/22 02:12:05;;;;;;;5.80;2.05;;;;;;;;;;4976267;28;20416;-80
2022/02/22 02:14:31;;;;;;;5.88;2.42;;;;;;;;;;4990460;28;20479;-80
2022/02/22 02:16:57;;;;;;;8.75;3.15;;;;;;;;;;4962057;28;20045;-80
2022/02/22 02:19:22;;;;;;;6.78;3.33;;;;;;;;;;4977823;28;20133;-80
2022/02/22 02:21:48;;;;;;;6.63;2.25;;;;;;;;;;4961673;28;20030;-80
2022/02/22 02:24:21;;;;;;;5.90;2.38;;;;;;;;;;4961544;28;20026;-80
2022/02/22 02:26:47;;;;;;;6.85;2.67;;;;;;;;;;4969567;28;20038;-79
2022/02/22 02:29:16;;;;;;;7.32;2.65;;;;;;;;;;4978018;28;20040;-79
2022/02/22 02:31:42;;;;;;;6.43;2.20;;;;;;;;;;4978002;28;20045;-80
2022/02/22 02:34:09;;;;;;;5.95;2.20;;;;;;;;;;4961350;28;20062;-79
2022/02/22 02:36:35;;;;;;;6.55;2.33;;;;;;;;;;4977333;28;20034;-79
2022/02/22 02:39:02;;;;;;;7.38;2.17;;;;;;;;;;4957047;28;20042;-80
2022/02/22 02:41:28;;;;;;;7.68;2.80;;;;;;;;;;4961466;28;20063;-80
2022/02/22 02:43:53;;;;;;;5.60;2.05;;;;;;;;;;4993506;28;20519;-80
2022/02/22 02:46:18;;;;;;;5.05;2.22;;;;;;;;;;4993548;28;20382;-79
2022/02/22 02:48:44;;;;;;;6.13;2.05;;;;;;;;;;4996427;28;20573;-79
2022/02/22 02:51:09;;;;;;;6.05;2.13;;;;;;;;;;4996688;28;20038;-79
2022/02/22 02:53:35;;;;;;;7.10;2.55;;;;;;;;;;4977101;28;20612;-80
2022/02/22 02:56:00;;;;;;;7.40;2.60;;;;;;;;;;4978028;28;20500;-79
2022/02/22 02:58:26;;;;;;;6.60;2.17;;;;;;;;;;4981721;28;20045;-79
2022/02/22 03:00:51;;;;;;;5.70;2.00;;;;;;;;;;4980776;28;20034;-79
2022/02/22 03:03:17;;;;;;;6.90;2.28;;;;;;;;;;4980369;28;20034;-79
2022/02/22 03:05:42;;;;;;;5.18;2.13;;;;;;;;;;4996372;28;20030;-79
2022/02/22 03:08:08;;;;;;;5.97;2.15;;;;;;;;;;4976718;28;20116;-79
2022/02/22 03:10:33;;;;;;;6.15;2.40;;;;;;;;;;4976925;28;20031;-80
2022/02/22 03:12:59;;;;;;;5.05;2.45;;;;;;;;;;4977328;28;20113;-79
2022/02/22 03:15:24;;;;;;;5.22;1.85;;;;;;;;;;4950043;28;20053;-79
2022/02/22 03:17:50;;;;;;;6.65;2.10;;;;;;;;;;4993019;28;20412;-79
2022/02/22 03:20:15;;;;;;;6.38;2.78;;;;;;;;;;4944618;28;20064;-79
2022/02/22 03:22:45;;;;;;;6.93;2.13;;;;;;;;;;4976917;28;20050;-80
2022/02/22 03:25:11;;;;;;;5.97;1.75;;;;;;;;;;4985542;28;20034;-79
2022/02/22 03:27:37;;;;;;;5.30;2.15;;;;;;;;;;4960558;28;20580;-79
2022/02/22 03:30:03;;;;;;;4.78;1.60;;;;;;;;;;4979804;28;20026;-79
2022/02/22 03:32:29;;;;;;;7.05;2.35;;;;;;;;;;4963650;28;20124;-80
2022/02/22 03:34:54;;;;;;;5.53;2.15;;;;;;;;;;4995400;28;20126;-79
2022/02/22 03:37:20;;;;;;;6.60;2.58;;;;;;;;;;4995906;28;20041;-79
2022/02/22 03:39:45;;;;;;;6.35;2.33;;;;;;;;;;4980053;28;20092;-80
2022/02/22 03:42:11;;;;;;;5.07;1.90;;;;;;;;;;4995833;28;20049;-80
2022/02/22 03:44:36;;;;;;;4.63;1.63;;;;;;;;;;4979715;28;20120;-79
2022/02/22 03:47:02;;;;;;;5.53;1.60;;;;;;;;;;4979761;28;20046;-79
2022/02/22 03:49:27;;;;;;;5.95;2.13;;;;;;;;;;4979422;28;20049;-79
2022/02/22 03:51:53;;;;;;;5.50;2.30;;;;;;;;;;4979036;28;20046;-80
2022/02/22 03:54:18;;;;;;;3.95;1.60;;;;;;;;;;4995510;28;20042;-81
2022/02/22 03:56:44;;;;;;;6.45;2.10;;;;;;;;;;4975980;28;20382;-79
2022/02/22 03:59:09;;;;;;;5.53;1.70;;;;;;;;;;4986730;28;20022;-79
2022/02/22 04:01:35;;;;;;;3.92;1.70;;;;;;;;;;4995444;28;20208;-80
2022/02/22 04:04:00;;;;;;;6.68;2.00;;;;;;;;;;4979022;28;20153;-80
2022/02/22 04:06:26;;;;;;;6.25;2.55;;;;;;;;;;4970048;28;20050;-79
2022/02/22 04:08:52;;;;;;;4.10;1.88;;;;;;;;;;4976206;28;20072;-79
2022/02/22 04:11:17;;;;;;;5.45;2.13;;;;;;;;;;4959894;28;20043;-80
2022/02/22 04:13:43;;;;;;;3.78;1.65;;;;;;;;;;4975909;28;20045;-80
2022/02/22 04:16:08;;;;;;;7.22;1.88;;;;;;;;;;4959806;28;20127;-80
2022/02/22 04:18:33;;;;;;;5.35;2.30;;;;;;;;;;4959431;28;20030;-79
2022/02/22 04:20:59;;;;;;;6.55;2.00;;;;;;;;;;4942667;28;20038;-79
2022/02/22 04:23:24;;;;;;;4.72;1.50;;;;;;;;;;4973918;28;20039;-79
2022/02/22 04:25:50;;;;;;;4.28;2.17;;;;;;;;;;4994601;28;20127;-79
2022/02/22 04:28:15;;;;;;;5.88;2.20;;;;;;;;;;4994892;28;20397;-80
2022/02/22 04:30:41;;;;;;;6.40;2.60;;;;;;;;;;4995161;28;20108;-80
2022/02/22 04:33:06;;;;;;;4.75;1.67;;;;;;;;;;4969260;28;20035;-80
2022/02/22 04:35:32;;;;;;;5.78;1.70;;;;;;;;;;4959446;28;20038;-80
2022/02/22 04:37:57;;;;;;;7.75;2.13;;;;;;;;;;4959512;28;20030;-79
2022/02/22 04:40:23;;;;;;;5.95;1.83;;;;;;;;;;4959150;28;20030;-79
2022/02/22 04:42:49;;;;;;;6.72;2.47;;;;;;;;;;4975464;28;20038;-80
2022/02/22 04:45:15;;;;;;;4.53;1.65;;;;;;;;;;4994452;28;20030;-80
2022/02/22 04:47:40;;;;;;;3.88;1.75;;;;;;;;;;4974678;28;20109;-80
2022/02/22 04:50:06;;;;;;;6.20;2.70;;;;;;;;;;4975115;28;20586;-80
2022/02/22 04:52:32;;;;;;;5.05;2.00;;;;;;;;;;4943228;28;20038;-80
2022/02/22 04:54:59;;;;;;;4.30;1.77;;;;;;;;;;4963930;28;20046;-79
2022/02/22 04:57:25;;;;;;;5.63;1.98;;;;;;;;;;4979018;28;20492;-79
2022/02/22 04:59:51;;;;;;;4.70;1.88;;;;;;;;;;4988649;28;20038;-80
2022/02/22 05:02:16;;;;;;;5.40;1.90;;;;;;;;;;5009749;28;20048;-79
2022/02/22 05:04:42;;;;;;;7.10;2.13;;;;;;;;;;4978036;28;20395;-79
2022/02/22 05:07:07;;;;;;;4.53;2.17;;;;;;;;;;4978416;28;20488;-80
2022/02/22 05:09:32;;;;;;;6.07;2.72;;;;;;;;;;4977906;28;20117;-80
2022/02/22 05:11:58;;;;;;;4.28;1.88;;;;;;;;;;4994376;28;20049;-80
2022/02/22 05:14:23;;;;;;;6.45;2.13;;;;;;;;;;4993648;28;20121;-80
2022/02/22 05:16:49;;;;;;;5.25;2.03;;;;;;;;;;4978364;28;20045;-80
2022/02/22 05:19:14;;;;;;;6.45;2.30;;;;;;;;;;4993885;28;20033;-80
2022/02/22 05:21:41;;;;;;;6.18;2.42;;;;;;;;;;4994624;28;20408;-80
2022/02/22 05:24:07;;;;;;;6.75;2.22;;;;;;;;;;4994068;28;21292;-80
2022/02/22 05:26:33;;;;;;;5.50;2.10;;;;;;;;;;4994194;28;20045;-80
2022/02/22 05:28:59;;;;;;;5.82;1.83;;;;;;;;;;4978322;28;20030;-80
2022/02/22 05:31:24;;;;;;;5.15;2.00;;;;;;;;;;4974027;28;20038;-80
2022/02/22 05:33:50;;;;;;;7.43;2.55;;;;;;;;;;4958439;28;20022;-80
2022/02/22 05:36:18;;;;;;;6.00;2.42;;;;;;;;;;4958528;28;20050;-80
2022/02/22 05:38:44;;;;;;;5.55;2.20;;;;;;;;;;4977816;28;20045;-80
2022/02/22 05:41:09;;;;;;;5.20;2.33;;;;;;;;;;4978044;28;20062;-80
2022/02/22 05:43:35;;;;;;;5.55;2.08;;;;;;;;;;4973366;28;20097;-80
2022/02/22 05:46:00;;;;;;;6.00;2.35;;;;;;;;;;4972754;28;20058;-80
2022/02/22 05:48:26;;;;;;;6.22;2.40;;;;;;;;;;4972725;28;20712;-80
2022/02/22 05:50:51;;;;;;;5.35;2.28;;;;;;;;;;4973301;28;20401;-80
2022/02/22 05:53:16;;;;;;;7.07;3.03;;;;;;;;;;4975813;28;20096;-80
2022/02/22 05:55:42;;;;;;;6.78;2.22;;;;;;;;;;4993060;28;20471;-80
2022/02/22 05:58:08;;;;;;;6.05;2.47;;;;;;;;;;4975580;28;20034;-80
2022/02/22 06:00:33;;;;;;;5.18;2.53;;;;;;;;;;4958097;28;20066;-80
2022/02/22 06:02:59;;;;;;;4.82;2.10;;;;;;;;;;4958577;28;20403;-80
2022/02/22 06:05:24;;;;;;;5.63;2.42;;;;;;;;;;4976109;28;20042;-80
2022/02/22 06:07:49;;;;;;;8.25;2.75;;;;;;;;;;4990263;28;20046;-80
2022/02/22 06:10:15;;;;;;;6.18;2.35;;;;;;;;;;4973234;28;20162;-80
2022/02/22 06:12:44;;;;;;;5.50;2.80;;;;;;;;;;4973997;28;20034;-81
2022/02/22 06:15:10;;;;;;;7.90;3.03;;;;;;;;;;4964446;28;20112;-80
2022/02/22 06:17:43;;;;;;;7.28;2.40;;;;;;;;;;4965296;28;20041;-80
2022/02/22 06:20:09;;;;;;;7.38;2.45;;;;;;;;;;4977474;28;20045;-80
2022/02/22 06:22:35;;;;;;;6.10;2.70;;;;;;;;;;4978096;28;20037;-79
2022/02/22 06:25:03;;;;;;;7.93;2.88;;;;;;;;;;4985162;28;20038;-79
2022/02/22 06:27:28;;;;;;;8.07;2.97;;;;;;;;;;4946020;28;20030;-79
2022/02/22 06:29:54;;;;;;;6.45;2.78;;;;;;;;;;4977419;28;20081;-80
2022/02/22 06:32:19;;;;;;;8.32;2.65;;;;;;;;;;4961619;28;20444;-79
2022/02/22 06:34:45;;;;;;;5.32;2.28;;;;;;;;;;4987690;28;20519;-79
2022/02/22 06:37:10;;;;;;;9.15;3.00;;;;;;;;;;4996949;28;20132;-81
2022/02/22 06:39:37;;;;;;;10.10;3.20;;;;;;;;;;4997616;28;20076;-82
2022/02/22 06:42:02;;;;;;;7.47;2.97;;;;;;;;;;4993091;28;20034;-83
2022/02/22 06:44:28;;;;;;;9.25;3.35;;;;;;;;;;4980286;28;20092;-83
2022/02/22 06:46:53;;;;;;;9.95;3.40;;;;;;;;;;4979496;28;20042;-83
2022/02/22 06:49:19;;;;;;;10.75;4.43;;;;;;;;;;4977643;28;20049;-83
2022/02/22 06:51:44;;;;;;;11.43;3.92;;;;;;;;;;4996178;28;20439;-83
2022/02/22 06:54:10;;;;;;;7.75;3.83;;;;;;;;;;4996652;28;20105;-83
2022/02/22 06:56:35;;;;;;;10.00;4.35;;;;;;;;;;4997217;28;20053;-82
2022/02/22 06:59:01;;;;;;;11.82;3.70;;;;;;;;;;4977288;28;20386;-83
2022/02/22 07:01:26;;;;;;;10.52;3.80;;;;;;;;;;4972497;28;20134;-83
2022/02/22 07:03:52;;;;;;;12.60;4.45;;;;;;;;;;4978394;28;20038;-83
2022/02/22 07:06:17;;;;;;;9.65;4.75;;;;;;;;;;4968502;28;20065;-83
2022/02/22 07:08:43;;;;;;;13.65;4.53;;;;;;;;;;4945103;28;20417;-82
2022/02/22 07:11:08;;;;;;;11.18;3.88;;;;;;;;;;4960760;28;20034;-82
2022/02/22 07:13:34;;;;;;;12.25;5.18;;;;;;;;;;4993628;28;20045;-82
2022/02/22 07:15:59;;;;;;;9.18;3.95;;;;;;;;;;4996432;28;20038;-82
2022/02/22 07:18:25;;;;;;;12.90;5.28;;;;;;;;;;4980196;28;20038;-80
2022/02/22 07:20:51;;;;;;;13.68;5.40;;;;;;;;;;4996324;28;20033;-83
2022/02/22 07:23:16;;;;;;;11.93;4.63;;;;;;;;;;4980435;28;20050;-84
2022/02/22 07:25:42;;;;;;;13.30;4.97;;;;;;;;;;4978949;28;20030;-83
2022/02/22 07:28:07;;;;;;;15.77;4.53;;;;;;;;;;4979974;28;20104;-83
2022/02/22 07:30:33;;;;;;;12.95;5.32;;;;;;;;;;4963788;28;20125;-83
2022/02/22 07:33:00;;;;;;;13.13;4.70;;;;;;;;;;4995918;28;20068;-82
2022/02/22 07:35:26;;;;;;;14.35;4.68;;;;;;;;;;4979375;28;20042;-83
2022/02/22 07:37:52;;;;;;;13.50;4.70;;;;;;;;;;4979677;28;20042;-81
2022/02/22 07:40:18;;;;;;;14.20;5.30;;;;;;;;;;4979210;28;20532;-81
2022/02/22 07:42:44;;;;;;;14.95;5.32;;;;;;;;;;4979836;28;20044;-81
2022/02/22 07:45:09;;;;;;;13.68;5.00;;;;;;;;;;4979412;28;20030;-81
2022/02/22 07:47:36;;;;;;;12.55;4.38;;;;;;;;;;4963440;28;20129;-81
2022/02/22 07:50:01;;;;;;;14.23;5.63;;;;;;;;;;4995483;28;20030;-80
2022/02/22 07:52:27;;;;;;;16.48;6.40;;;;;;;;;;4995563;28;20034;-80
2022/02/22 07:54:53;;;;;;;22.75;12.02;;;;;;;;;;4978762;28;20060;-81
2022/02/22 07:57:19;;;;;;;15.35;8.88;;;;;;;;;;4963121;28;20034;-81
2022/02/22 07:59:44;;;;;;;16.33;8.85;;;;;;;;;;4995153;28;20032;-80
2022/02/22 08:02:10;;;;;;;18.05;7.75;;;;;;;;;;4995644;28;20400;-81
2022/02/22 08:04:36;;;;;;;17.77;9.23;;;;;;;;;;4994818;28;20042;-80
2022/02/22 08:07:01;;;;;;;16.10;7.90;;;;;;;;;;4979404;28;20038;-81
2022/02/22 08:09:27;;;;;;;18.45;8.55;;;;;;;;;;4963054;28;20068;-81
2022/02/22 08:11:53;;;;;;;16.95;7.68;;;;;;;;;;4978948;28;20046;-81
2022/02/22 08:14:18;;;;;;;15.45;8.07;;;;;;;;;;4995082;28;20064;-81
2022/02/22 08:16:43;;;;;;;15.38;7.05;;;;;;;;;;4979097;28;20033;-82
2022/02/22 08:19:10;;;;;;;16.52;6.78;;;;;;;;;;4962484;28;20439;-81
2022/02/22 08:21:35;;;;;;;17.25;6.70;;;;;;;;;;4978557;28;20087;-81
2022/02/22 08:24:01;;;;;;;16.92;7.20;;;;;;;;;;4978399;28;20447;-81
2022/02/22 08:26:26;;;;;;;16.10;6.30;;;;;;;;;;4994935;28;20128;-80
2022/02/22 08:28:52;;;;;;;15.75;6.03;;;;;;;;;;4995023;28;20044;-80
2022/02/22 08:31:17;;;;;;;15.43;5.18;;;;;;;;;;4978940;28;20061;-81
2022/02/22 08:33:44;;;;;;;16.80;5.90;;;;;;;;;;4962790;28;20029;-81
2022/02/22 08:36:10;;;;;;;11.48;4.82;;;;;;;;;;4978578;28;20057;-81
2022/02/22 08:38:35;;;;;;;14.15;5.40;;;;;;;;;;4978750;28;20030;-81
2022/02/22 08:41:01;;;;;;;15.20;4.40;;;;;;;;;;4978604;28;20149;-81
2022/02/22 08:43:26;;;;;;;14.40;5.97;;;;;;;;;;4994780;28;20038;-81
2022/02/22 08:45:52;;;;;;;13.68;5.30;;;;;;;;;;4994816;28;20046;-81
2022/02/22 08:48:17;;;;;;;11.52;4.80;;;;;;;;;;4978857;28;20419;-81
2022/02/22 08:50:43;;;;;;;17.73;4.28;;;;;;;;;;4994320;28;20140;-81
2022/02/22 08:53:08;;;;;;;15.98;5.55;;;;;;;;;;4994374;28;20033;-81
2022/02/22 08:55:34;;;;;;;14.88;5.28;;;;;;;;;;4995170;28;20084;-82
2022/02/22 08:58:00;;;;;;;11.57;3.90;;;;;;;;;;4978603;28;20037;-82
2022/02/22 09:00:26;;;;;;;12.07;3.75;;;;;;;;;;4962518;28;20045;-81
2022/02/22 09:02:53;;;;;;;12.48;3.55;;;;;;;;;;4962426;28;20137;-81
2022/02/22 09:05:18;;;;;;;12.95;3.90;;;;;;;;;;4978721;28;20044;-81
2022/02/22 09:07:45;;;;;;;9.90;3.83;;;;;;;;;;4962183;28;20029;-81
2022/02/22 09:10:12;;;;;;;30.20;5.97;;;;;;;;;;4962250;28;20463;-81
2022/02/22 09:12:38;;;;;;;18.23;8.95;;;;;;;;;;4978839;28;20034;-81
2022/02/22 09:15:04;;;;;;;20.52;10.55;;;;;;;;;;4977972;28;20045;-81
2022/02/22 09:17:29;;;;;;;31.20;19.67;;;;;;;;;;4994487;28;20042;-81
2022/02/22 09:19:55;;;;;;;31.85;18.25;;;;;;;;;;4978374;28;20038;-81
2022/02/22 09:22:21;;;;;;;30.02;16.25;;;;;;;;;;4961937;28;20069;-81
2022/02/22 09:24:46;;;;;;;28.25;16.13;;;;;;;;;;4974620;28;20050;-81
2022/02/22 09:27:11;;;;;;;25.00;13.95;;;;;;;;;;4958804;28;20116;-82
2022/02/22 09:29:37;;;;;;;24.77;14.00;;;;;;;;;;4974706;28;20054;-81
2022/02/22 09:32:03;;;;;;;19.80;11.23;;;;;;;;;;4942608;28;20030;-81
2022/02/22 09:34:28;;;;;;;19.88;11.73;;;;;;;;;;4958864;28;20049;-81
2022/02/22 09:36:55;;;;;;;22.65;10.68;;;;;;;;;;4974289;28;20030;-81
2022/02/22 09:39:21;;;;;;;19.60;10.80;;;;;;;;;;4959145;28;20031;-81
2022/02/22 09:41:46;;;;;;;22.80;10.35;;;;;;;;;;4958377;28;20104;-82
2022/02/22 09:44:12;;;;;;;21.08;8.75;;;;;;;;;;4942284;28;20413;-81
2022/02/22 09:46:38;;;;;;;17.83;8.93;;;;;;;;;;4965047;28;20120;-81
2022/02/22 09:49:03;;;;;;;19.25;9.23;;;;;;;;;;4979621;28;20049;-81
2022/02/22 09:51:28;;;;;;;18.00;8.10;;;;;;;;;;4965354;28;20030;-81
2022/02/22 09:53:54;;;;;;;13.88;7.78;;;;;;;;;;4981551;28;20042;-81
2022/02/22 09:56:24;;;;;;;17.35;7.32;;;;;;;;;;4981652;28;20067;-80
2022/02/22 09:58:49;;;;;;;14.48;6.90;;;;;;;;;;4978283;28;20045;-81
2022/02/22 10:01:15;;;;;;;15.13;6.70;;;;;;;;;;4962383;28;20405;-82
2022/02/22 10:03:40;;;;;;;15.52;6.95;;;;;;;;;;4994178;28;20042;-81
2022/02/22 10:06:06;;;;;;;16.17;6.55;;;;;;;;;;4977839;28;20412;-81
2022/02/22 10:08:32;;;;;;;12.13;5.68;;;;;;;;;;4994553;28;20042;-82
2022/02/22 10:11:08;;;;;;;11.95;5.10;;;;;;;;;;4977648;28;20041;-81
2022/02/22 10:13:34;;;;;;;10.82;5.05;;;;;;;;;;4977120;28;20046;-82
2022/02/22 10:16:04;;;;;;;15.23;6.18;;;;;;;;;;4978144;28;20043;-81
2022/02/22 10:18:30;;;;;;;12.38;4.50;;;;;;;;;;4977964;28;20492;-81
2022/02/22 10:20:55;;;;;;;16.73;5.57;;;;;;;;;;4993664;28;20148;-82
2022/02/22 10:23:30;;;;;;;13.75;4.85;;;;;;;;;;4993935;28;20065;-82
2022/02/22 10:25:57;;;;;;;11.63;4.15;;;;;;;;;;4977704;28;20042;-81
2022/02/22 10:28:22;;;;;;;15.85;5.72;;;;;;;;;;4977711;28;20042;-81
2022/02/22 10:30:50;;;;;;;8.07;3.92;;;;;;;;;;4961722;28;20034;-83
2022/02/22 10:33:23;;;;;;;11.25;3.70;;;;;;;;;;4962334;28;20128;-81
2022/02/22 10:35:51;;;;;;;12.00;3.60;;;;;;;;;;4961294;28;20027;-80
2022/02/22 10:38:28;;;;;;;10.18;3.67;;;;;;;;;;4961916;28;20070;-81
2022/02/22 10:40:54;;;;;;;11.18;3.80;;;;;;;;;;4945590;28;20452;-79
2022/02/22 10:43:21;;;;;;;9.80;3.05;;;;;;;;;;4993856;28;20093;-79
2022/02/22 10:45:50;;;;;;;13.63;3.92;;;;;;;;;;4961797;28;20113;-80
2022/02/22 10:48:28;;;;;;;10.40;3.67;;;;;;;;;;4961583;28;20095;-79
2022/02/22 10:50:54;;;;;;;10.68;3.95;;;;;;;;;;4994845;28;20042;-80
2022/02/22 10:53:19;;;;;;;10.38;3.65;;;;;;;;;;4945472;28;20370;-80
2022/02/22 10:55:46;;;;;;;11.63;4.13;;;;;;;;;;4977468;28;20045;-79
2022/02/22 10:58:12;;;;;;;9.30;3.22;;;;;;;;;;4980555;28;20042;-80
2022/02/22 11:00:37;;;;;;;9.80;3.33;;;;;;;;;;4979424;28;20128;-80
2022/02/22 11:03:03;;;;;;;10.27;4.20;;;;;;;;;;4996679;28;20041;-80
2022/02/22 11:05:28;;;;;;;9.45;3.20;;;;;;;;;;4980253;28;20033;-80
2022/02/22 11:07:54;;;;;;;9.80;4.43;;;;;;;;;;4964365;28;20128;-80
2022/02/22 11:10:21;;;;;;;11.07;3.83;;;;;;;;;;4996213;28;20037;-79
2022/02/22 11:12:53;;;;;;;9.73;4.43;;;;;;;;;;4980648;28;20084;-80
2022/02/22 11:15:19;;;;;;;8.43;2.97;;;;;;;;;;4996285;28;20467;-80
2022/02/22 11:17:48;;;;;;;9.43;3.88;;;;;;;;;;4979804;28;20046;-80
2022/02/22 11:20:30;;;;;;;11.18;4.10;;;;;;;;;;4980182;28;20385;-80
2022/02/22 11:22:57;;;;;;;7.50;2.97;;;;;;;;;;4980912;28;20556;-80
2022/02/22 11:25:27;;;;;;;10.32;3.92;;;;;;;;;;4977069;28;20106;-80
2022/02/22 11:27:59;;;;;;;9.38;2.72;;;;;;;;;;4977316;28;20068;-79
2022/02/22 11:30:28;;;;;;;10.27;3.45;;;;;;;;;;4960807;28;20034;-79
2022/02/22 11:33:09;;;;;;;8.60;3.15;;;;;;;;;;4944327;28;20070;-79
2022/02/22 11:35:57;;;;;;;8.80;3.83;;;;;;;;;;4978876;28;20113;-80
2022/02/22 11:38:22;;;;;;;9.43;3.25;;;;;;;;;;4976637;28;20046;-80
2022/02/22 11:40:50;;;;;;;15.05;3.88;;;;;;;;;;4960298;28;20392;-80
2022/02/22 11:43:17;;;;;;;7.82;3.20;;;;;;;;;;4961010;28;20053;-79
2022/02/22 11:45:44;;;;;;;9.07;2.88;;;;;;;;;;4960394;28;20038;-80
2022/02/22 11:48:17;;;;;;;9.27;3.38;;;;;;;;;;4960412;28;20038;-80
2022/02/22 11:50:43;;;;;;;9.02;3.20;;;;;;;;;;4992247;28;20038;-80
2022/02/22 11:53:13;;;;;;;6.40;2.72;;;;;;;;;;4960616;28;20065;-80
2022/02/22 11:55:39;;;;;;;6.45;2.63;;;;;;;;;;4960604;28;20061;-80
2022/02/22 11:58:12;;;;;;;8.32;2.72;;;;;;;;;;4961693;28;20505;-79
2022/02/22 12:00:37;;;;;;;11.40;4.25;;;;;;;;;;4963670;28;20457;-80
2022/02/22 12:03:07;;;;;;;8.32;2.95;;;;;;;;;;4979175;28;20038;-80
2022/02/22 12:05:38;;;;;;;8.60;3.38;;;;;;;;;;4996044;28;20115;-80
2022/02/22 12:08:20;;;;;;;9.32;3.30;;;;;;;;;;4964560;28;20041;-80
2022/02/22 12:10:50;;;;;;;8.27;3.30;;;;;;;;;;4963475;28;20483;-80
2022/02/22 12:13:17;;;;;;;9.48;3.28;;;;;;;;;;5011588;28;20121;-80
2022/02/22 12:15:42;;;;;;;9.43;2.70;;;;;;;;;;4995286;28;20512;-80
2022/02/22 12:18:21;;;;;;;9.48;3.85;;;;;;;;;;4995445;28;20049;-80
2022/02/22 12:20:47;;;;;;;8.60;3.80;;;;;;;;;;4964144;28;20091;-80
2022/02/22 12:23:17;;;;;;;6.90;3.10;;;;;;;;;;4995153;28;20471;-80
2022/02/22 12:25:43;;;;;;;7.93;2.97;;;;;;;;;;4995265;28;20030;-80
2022/02/22 12:28:08;;;;;;;8.18;3.10;;;;;;;;;;4979160;28;20030;-80
2022/02/22 12:30:35;;;;;;;7.97;3.03;;;;;;;;;;4978661;28;20045;-79
2022/02/22 12:33:02;;;;;;;7.88;2.85;;;;;;;;;;4979038;28;20107;-79
2022/02/22 12:35:35;;;;;;;6.60;2.92;;;;;;;;;;4994930;28;20033;-79
2022/02/22 12:38:17;;;;;;;9.20;4.90;;;;;;;;;;4978978;28;20065;-79
2022/02/22 12:40:43;;;;;;;18.42;9.93;;;;;;;;;;4981286;28;20124;-80
2022/02/22 12:43:09;;;;;;;27.73;18.50;;;;;;;;;;4978577;28;20050;-80
2022/02/22 12:45:49;;;;;;;36.22;23.63;;;;;;;;;;4962429;28;20041;-80
2022/02/22 12:48:15;;;;;;;50.72;34.97;;;;;;;;;;4980434;28;20117;-79
2022/02/22 12:50:42;;;;;;;58.78;39.45;;;;;;;;;;4994760;28;20520;-80
2022/02/22 12:53:08;;;;;;;63.65;41.83;;;;;;;;;;4978498;28;20041;-80
2022/02/22 12:55:46;;;;;;;66.45;46.20;;;;;;;;;;4994631;28;20404;-79
2022/02/22 12:58:11;;;;;;;67.97;44.72;;;;;;;;;;4978254;28;20037;-79
2022/02/22 13:00:37;;;;;;;67.10;46.72;;;;;;;;;;4962195;28;20116;-79
2022/02/22 13:03:07;;;;;;;66.32;44.53;;;;;;;;;;4978452;28;20390;-79
2022/02/22 13:05:36;;;;;;;70.25;46.55;;;;;;;;;;4962993;28;20124;-80
2022/02/22 13:08:01;;;;;;;68.63;46.53;;;;;;;;;;4962409;28;20060;-79
2022/02/22 13:10:27;;;;;;;70.47;46.03;;;;;;;;;;4977825;28;20404;-79
2022/02/22 13:12:59;;;;;;;62.50;42.95;;;;;;;;;;4978605;28;20045;-80
2022/02/22 13:15:25;;;;;;;62.78;41.97;;;;;;;;;;4993937;28;20064;-79
2022/02/22 13:17:53;;;;;;;63.65;41.10;;;;;;;;;;4994320;28;20493;-80
2022/02/22 13:20:19;;;;;;;58.30;39.05;;;;;;;;;;4993827;28;20037;-79
2022/02/22 13:22:44;;;;;;;58.08;39.90;;;;;;;;;;4963448;28;20520;-80
2022/02/22 13:25:15;;;;;;;54.78;38.40;;;;;;;;;;4985181;28;20118;-79
2022/02/22 13:27:42;;;;;;;58.85;38.53;;;;;;;;;;4991047;28;20108;-80
2022/02/22 13:30:10;;;;;;;53.78;33.97;;;;;;;;;;4979722;28;20038;-79
2022/02/22 13:32:36;;;;;;;53.83;34.40;;;;;;;;;;4957715;28;20058;-79
2022/02/22 13:35:02;;;;;;;50.88;35.47;;;;;;;;;;4974202;28;20042;-79
2022/02/22 13:37:30;;;;;;;51.95;33.10;;;;;;;;;;4991786;28;20039;-79
2022/02/22 13:40:06;;;;;;;46.53;31.83;;;;;;;;;;4960885;28;20080;-79
2022/02/22 13:42:33;;;;;;;45.65;30.30;;;;;;;;;;4994017;28;20038;-79
2022/02/22 13:44:59;;;;;;;42.63;29.20;;;;;;;;;;4993935;28;20128;-79
2022/02/22 13:47:33;;;;;;;44.40;28.70;;;;;;;;;;4993640;28;20041;-79
2022/02/22 13:49:58;;;;;;;39.95;25.73;;;;;;;;;;4993665;28;20072;-80
2022/02/22 13:52:24;;;;;;;38.63;24.23;;;;;;;;;;4976948;28;20128;-79
2022/02/22 13:54:53;;;;;;;41.53;25.75;;;;;;;;;;4993459;28;20105;-80
2022/02/22 13:57:19;;;;;;;49.10;34.83;;;;;;;;;;4994187;28;20061;-79
2022/02/22 13:59:46;;;;;;;52.25;36.28;;;;;;;;;;4989191;28;20068;-80
2022/02/22 14:02:27;;;;;;;44.63;32.53;;;;;;;;;;4993999;28;20037;-81
2022/02/22 14:04:52;;;;;;;49.53;34.80;;;;;;;;;;4993545;28;20054;-80
2022/02/22 14:07:20;;;;;;;48.70;33.50;;;;;;;;;;4961916;28;20081;-80
2022/02/22 14:09:46;;;;;;;59.45;40.63;;;;;;;;;;4993747;28;20105;-80
2022/02/22 14:12:12;;;;;;;60.13;43.25;;;;;;;;;;4999734;28;20618;-80
2022/02/22 14:14:38;;;;;;;54.88;37.40;;;;;;;;;;4993023;28;20469;-79
2022/02/22 14:17:03;;;;;;;52.13;36.42;;;;;;;;;;4973960;28;20130;-80
2022/02/22 14:19:29;;;;;;;52.58;38.67;;;;;;;;;;4970613;28;20096;-80
2022/02/22 14:21:54;;;;;;;51.92;37.90;;;;;;;;;;4976368;28;20034;-80
2022/02/22 14:24:22;;;;;;;53.65;38.83;;;;;;;;;;4972881;28;20046;-79
2022/02/22 14:26:48;;;;;;;56.10;42.33;;;;;;;;;;4976011;28;20034;-79
2022/02/22 14:29:13;;;;;;;49.90;37.90;;;;;;;;;;4973350;28;20177;-80
2022/02/22 14:31:39;;;;;;;55.70;38.95;;;;;;;;;;4976809;28;20037;-80